createdAt,value
2018-12-15T00:01:54.032Z,-9.40
2018-12-15T00:04:23.072Z,-9.40
2018-12-15T00:06:52.215Z,-9.40
2018-12-15T00:09:21.307Z,-9.40
2018-12-15T00:11:50.442Z,-9.30
2018-12-15T00:14:19.601Z,-9.40
2018-12-15T00:16:48.696Z,-9.30
2018-12-15T00:19:17.770Z,-9.30
2018-12-15T00:21:46.875Z,-9.30
2018-12-15T00:24:15.981Z,-9.20
2018-12-15T00:26:45.095Z,-9.20
2018-12-15T00:29:15.169Z,-9.00
2018-12-15T00:31:44.256Z,-9.10
2018-12-15T00:34:13.332Z,-8.80
2018-12-15T00:36:42.481Z,-8.80
2018-12-15T00:39:11.596Z,-8.80
2018-12-15T00:41:40.673Z,-8.80
2018-12-15T00:44:09.782Z,-8.80
2018-12-15T00:46:38.862Z,-8.60
2018-12-15T00:49:07.919Z,-8.60
2018-12-15T00:51:37.170Z,-8.60
2018-12-15T00:54:06.231Z,-8.50
2018-12-15T00:56:35.290Z,-8.50
2018-12-15T00:59:04.423Z,-8.50
2018-12-15T01:01:33.515Z,-8.50
2018-12-15T01:04:02.605Z,-8.50
2018-12-15T01:06:31.792Z,-8.40
2018-12-15T01:09:00.845Z,-8.30
2018-12-15T01:11:29.937Z,-8.10
2018-12-15T01:13:59.050Z,-8.10
2018-12-15T01:16:28.133Z,-8.00
2018-12-15T01:18:57.209Z,-8.00
2018-12-15T01:21:26.395Z,-8.00
2018-12-15T01:23:55.461Z,-8.00
2018-12-15T01:26:24.507Z,-7.90
2018-12-15T01:28:53.862Z,-7.90
2018-12-15T01:31:22.952Z,-7.90
2018-12-15T01:33:52.216Z,-7.80
2018-12-15T01:36:21.926Z,-7.70
2018-12-15T01:38:50.970Z,-7.60
2018-12-15T01:41:20.054Z,-7.60
2018-12-15T01:43:49.219Z,-7.60
2018-12-15T01:46:18.319Z,-7.60
2018-12-15T01:48:47.370Z,-7.60
2018-12-15T01:51:17.013Z,-7.50
2018-12-15T01:53:46.089Z,-7.50
2018-12-15T01:56:15.245Z,-7.50
2018-12-15T01:58:44.898Z,-7.30
2018-12-15T02:01:14.025Z,-7.30
2018-12-15T02:03:43.113Z,-7.30
2018-12-15T02:06:12.562Z,-7.30
2018-12-15T02:08:41.633Z,-7.40
2018-12-15T02:11:10.671Z,-7.30
2018-12-15T02:13:40.164Z,-7.20
2018-12-15T02:16:09.274Z,-7.10
2018-12-15T02:18:38.344Z,-7.10
2018-12-15T02:21:07.531Z,-7.10
2018-12-15T02:23:36.630Z,-7.00
2018-12-15T02:26:05.754Z,-7.10
2018-12-15T02:28:35.105Z,-7.10
2018-12-15T02:31:04.201Z,-7.00
2018-12-15T02:33:33.254Z,-7.10
2018-12-15T02:36:02.763Z,-7.00
2018-12-15T02:38:31.828Z,-7.00
2018-12-15T02:41:01.116Z,-7.00
2018-12-15T02:43:30.331Z,-6.90
2018-12-15T02:45:59.378Z,-6.70
2018-12-15T02:48:28.443Z,-6.70
2018-12-15T02:50:57.572Z,-6.70
2018-12-15T02:53:26.676Z,-6.70
2018-12-15T02:55:56.038Z,-6.80
2018-12-15T02:58:25.172Z,-6.80
2018-12-15T03:00:54.285Z,-6.80
2018-12-15T03:03:23.338Z,-6.80
2018-12-15T03:05:52.547Z,-6.90
2018-12-15T03:08:21.654Z,-6.80
2018-12-15T03:10:50.737Z,-6.60
2018-12-15T03:13:19.874Z,-6.60
2018-12-15T03:15:48.953Z,-6.50
2018-12-15T03:18:18.005Z,-6.50
2018-12-15T03:20:57.894Z,-6.40
2018-12-15T03:23:27.318Z,-6.30
2018-12-15T03:25:56.453Z,-6.30
2018-12-15T03:28:25.559Z,-6.30
2018-12-15T03:30:54.663Z,-6.20
2018-12-15T03:33:23.769Z,-6.10
2018-12-15T03:35:52.986Z,-6.00
2018-12-15T03:38:22.081Z,-6.00
2018-12-15T03:40:51.112Z,-5.90
2018-12-15T03:43:20.176Z,-5.80
2018-12-15T03:45:49.248Z,-5.50
2018-12-15T03:48:18.371Z,-5.60
2018-12-15T03:50:47.807Z,-5.50
2018-12-15T03:53:16.889Z,-5.40
2018-12-15T03:55:46.032Z,-5.40
2018-12-15T03:58:16.129Z,-5.50
2018-12-15T04:00:45.211Z,-5.50
2018-12-15T04:03:14.370Z,-5.50
2018-12-15T04:05:43.574Z,-5.50
2018-12-15T04:08:12.706Z,-5.50
2018-12-15T04:10:41.778Z,-5.60
2018-12-15T04:13:10.954Z,-5.60
2018-12-15T04:15:40.001Z,-5.50
2018-12-15T04:18:09.086Z,-5.60
2018-12-15T04:20:38.208Z,-5.50
2018-12-15T04:23:07.322Z,-5.40
2018-12-15T04:25:36.402Z,-5.20
2018-12-15T04:28:05.597Z,-5.20
2018-12-15T04:30:34.710Z,-5.20
2018-12-15T04:33:03.806Z,-5.10
2018-12-15T04:35:33.105Z,-5.10
2018-12-15T04:38:02.133Z,-5.00
2018-12-15T04:40:31.478Z,-5.10
2018-12-15T04:43:00.756Z,-5.00
2018-12-15T04:45:29.891Z,-5.00
2018-12-15T04:47:58.988Z,-5.00
2018-12-15T04:50:28.114Z,-5.00
2018-12-15T04:52:57.221Z,-5.00
2018-12-15T04:55:26.308Z,-5.00
2018-12-15T04:57:55.435Z,-4.90
2018-12-15T05:00:24.478Z,-4.90
2018-12-15T05:02:53.548Z,-4.80
2018-12-15T05:05:23.126Z,-4.80
2018-12-15T05:07:52.201Z,-4.90
2018-12-15T05:10:21.265Z,-4.80
2018-12-15T05:12:50.400Z,-4.80
2018-12-15T05:15:19.507Z,-4.80
2018-12-15T05:17:48.671Z,-4.80
2018-12-15T05:20:18.345Z,-4.80
2018-12-15T05:22:47.451Z,-4.80
2018-12-15T05:25:16.604Z,-4.90
2018-12-15T05:27:45.695Z,-4.90
2018-12-15T05:30:14.874Z,-4.80
2018-12-15T05:32:43.938Z,-4.70
2018-12-15T05:35:13.042Z,-4.70
2018-12-15T05:37:42.155Z,-4.70
2018-12-15T05:40:11.240Z,-4.70
2018-12-15T05:42:40.644Z,-4.70
2018-12-15T05:45:09.750Z,-4.60
2018-12-15T05:47:38.837Z,-4.60
2018-12-15T05:50:08.125Z,-4.60
2018-12-15T05:52:37.181Z,-4.60
2018-12-15T05:55:06.415Z,-4.50
2018-12-15T05:57:35.511Z,-4.50
2018-12-15T06:00:06.921Z,-4.50
2018-12-15T06:02:36.309Z,-4.50
2018-12-15T06:05:05.902Z,-4.50
2018-12-15T06:07:34.994Z,-4.40
2018-12-15T06:10:04.401Z,-4.50
2018-12-15T06:12:33.471Z,-4.50
2018-12-15T06:15:02.554Z,-4.50
2018-12-15T06:17:31.722Z,-4.50
2018-12-15T06:20:00.830Z,-4.50
2018-12-15T06:22:29.889Z,-4.40
2018-12-15T06:24:58.994Z,-4.40
2018-12-15T06:27:28.108Z,-4.30
2018-12-15T06:29:57.203Z,-4.30
2018-12-15T06:32:26.483Z,-4.40
2018-12-15T06:34:55.549Z,-4.30
2018-12-15T06:37:24.600Z,-4.30
2018-12-15T06:39:53.722Z,-4.40
2018-12-15T06:42:22.816Z,-4.30
2018-12-15T06:44:51.886Z,-4.40
2018-12-15T06:47:21.010Z,-4.30
2018-12-15T06:49:50.053Z,-4.30
2018-12-15T06:52:19.153Z,-4.30
2018-12-15T06:54:48.469Z,-4.30
2018-12-15T06:57:17.499Z,-4.20
2018-12-15T06:59:46.596Z,-4.20
2018-12-15T07:02:15.759Z,-4.20
2018-12-15T07:04:44.858Z,-4.20
2018-12-15T07:07:13.997Z,-4.10
2018-12-15T07:09:43.338Z,-4.10
2018-12-15T07:12:12.430Z,-4.10
2018-12-15T07:14:41.499Z,-4.10
2018-12-15T07:17:10.657Z,-4.20
2018-12-15T07:19:39.810Z,-4.20
2018-12-15T07:22:08.878Z,-4.20
2018-12-15T07:24:38.194Z,-4.10
2018-12-15T07:27:07.285Z,-4.10
2018-12-15T07:29:36.399Z,-4.00
2018-12-15T07:32:06.054Z,-4.00
2018-12-15T07:34:35.151Z,-4.00
2018-12-15T07:37:04.264Z,-4.00
2018-12-15T07:39:33.549Z,-3.90
2018-12-15T07:42:02.648Z,-4.00
2018-12-15T07:44:31.807Z,-4.20
2018-12-15T07:47:01.019Z,-4.10
2018-12-15T07:49:30.225Z,-4.00
2018-12-15T07:51:59.326Z,-3.90
2018-12-15T07:54:28.877Z,-3.90
2018-12-15T07:56:57.976Z,-3.90
2018-12-15T07:59:27.090Z,-3.90
2018-12-15T08:01:56.227Z,-3.90
2018-12-15T08:04:25.320Z,-3.80
2018-12-15T08:06:54.445Z,-3.80
2018-12-15T08:09:23.601Z,-3.90
2018-12-15T08:13:02.977Z,-3.80
2018-12-15T08:15:32.530Z,-3.80
2018-12-15T08:18:01.593Z,-3.80
2018-12-15T08:20:30.685Z,-3.80
2018-12-15T08:22:59.762Z,-3.80
2018-12-15T08:25:28.862Z,-3.80
2018-12-15T08:27:57.910Z,-3.80
2018-12-15T08:30:27.028Z,-3.80
2018-12-15T08:32:56.078Z,-3.80
2018-12-15T08:35:25.170Z,-3.80
2018-12-15T08:37:54.306Z,-3.90
2018-12-15T08:40:23.414Z,-3.90
2018-12-15T08:42:52.450Z,-3.90
2018-12-15T08:45:21.806Z,-3.90
2018-12-15T08:47:50.963Z,-3.80
2018-12-15T08:50:20.043Z,-3.80
2018-12-15T08:52:49.151Z,-3.80
2018-12-15T08:55:18.340Z,-3.80
2018-12-15T08:57:47.448Z,-3.80
2018-12-15T09:00:16.673Z,-3.80
2018-12-15T09:02:45.759Z,-3.80
2018-12-15T09:05:14.941Z,-3.80
2018-12-15T09:07:44.317Z,-3.80
2018-12-15T09:10:13.606Z,-3.80
2018-12-15T09:12:42.726Z,-3.80
2018-12-15T09:15:11.893Z,-3.90
2018-12-15T09:17:41.121Z,-3.80
2018-12-15T09:20:10.382Z,-3.90
2018-12-15T09:22:39.494Z,-3.80
2018-12-15T09:25:08.587Z,-4.00
2018-12-15T09:27:37.665Z,-3.90
2018-12-15T09:30:07.745Z,-3.80
2018-12-15T09:32:36.842Z,-3.80
2018-12-15T09:35:06.522Z,-3.70
2018-12-15T09:37:35.671Z,-3.80
2018-12-15T09:40:05.070Z,-3.60
2018-12-15T09:42:34.163Z,-3.60
2018-12-15T09:45:03.287Z,-3.50
2018-12-15T09:47:32.440Z,-3.60
2018-12-15T09:50:01.560Z,-3.70
2018-12-15T09:52:30.692Z,-3.70
2018-12-15T09:54:59.853Z,-3.60
2018-12-15T09:57:29.037Z,-3.70
2018-12-15T09:59:58.202Z,-3.70
2018-12-15T10:02:27.247Z,-3.70
2018-12-15T10:04:56.386Z,-3.60
2018-12-15T10:07:25.522Z,-3.60
2018-12-15T10:09:54.591Z,-3.60
2018-12-15T10:12:23.777Z,-3.60
2018-12-15T10:14:52.919Z,-3.50
2018-12-15T10:17:22.101Z,-3.50
2018-12-15T10:19:51.218Z,-3.50
2018-12-15T10:22:20.387Z,-3.50
2018-12-15T10:24:49.463Z,-3.50
2018-12-15T10:27:18.540Z,-3.50
2018-12-15T10:29:52.814Z,-3.60
2018-12-15T10:32:27.050Z,-3.60
2018-12-15T10:34:56.172Z,-3.50
2018-12-15T10:37:25.368Z,-3.40
2018-12-15T10:39:54.478Z,-3.40
2018-12-15T10:42:23.669Z,-3.40
2018-12-15T10:44:52.750Z,-3.50
2018-12-15T10:47:21.845Z,-3.40
2018-12-15T10:49:50.939Z,-3.30
2018-12-15T10:52:20.050Z,-3.30
2018-12-15T10:54:49.108Z,-3.20
2018-12-15T10:57:18.261Z,-3.30
2018-12-15T10:59:47.390Z,-3.30
2018-12-15T11:02:16.497Z,-3.20
2018-12-15T11:04:45.655Z,-3.20
2018-12-15T11:07:14.729Z,-3.30
2018-12-15T11:09:43.815Z,-3.20
2018-12-15T11:12:12.928Z,-3.30
2018-12-15T11:14:42.005Z,-3.30
2018-12-15T11:17:11.136Z,-3.30
2018-12-15T11:19:40.275Z,-3.20
2018-12-15T11:22:09.309Z,-3.20
2018-12-15T11:24:38.371Z,-3.20
2018-12-15T11:27:07.523Z,-3.10
2018-12-15T11:29:36.594Z,-3.10
2018-12-15T11:32:05.733Z,-3.10
2018-12-15T11:34:34.868Z,-3.10
2018-12-15T11:37:03.956Z,-3.10
2018-12-15T11:39:33.093Z,-3.00
2018-12-15T11:42:02.261Z,-3.00
2018-12-15T11:44:31.346Z,-3.00
2018-12-15T11:47:00.400Z,-3.00
2018-12-15T11:49:29.567Z,-3.00
2018-12-15T11:51:58.688Z,-3.00
2018-12-15T11:54:27.882Z,-3.00
2018-12-15T11:56:57.027Z,-3.00
2018-12-15T11:59:32.546Z,-3.10
2018-12-15T12:02:01.632Z,-3.10
2018-12-15T12:04:30.752Z,-3.00
2018-12-15T12:06:59.831Z,-3.10
2018-12-15T12:09:29.051Z,-3.10
2018-12-15T12:11:58.121Z,-3.10
2018-12-15T12:14:27.235Z,-3.10
2018-12-15T12:16:56.332Z,-3.10
2018-12-15T12:19:25.424Z,-3.10
2018-12-15T12:21:54.511Z,-3.00
2018-12-15T12:24:23.605Z,-3.00
2018-12-15T12:26:52.740Z,-3.00
2018-12-15T12:29:21.825Z,-3.00
2018-12-15T12:31:50.976Z,-2.90
2018-12-15T12:34:20.091Z,-2.90
2018-12-15T12:36:49.164Z,-2.90
2018-12-15T12:39:18.258Z,-3.00
2018-12-15T12:41:47.396Z,-2.90
2018-12-15T12:44:16.459Z,-2.90
2018-12-15T12:46:45.577Z,-2.90
2018-12-15T12:49:14.687Z,-2.90
2018-12-15T12:51:43.792Z,-2.90
2018-12-15T12:54:12.899Z,-2.90
2018-12-15T12:56:42.115Z,-2.80
2018-12-15T12:59:11.196Z,-2.90
2018-12-15T13:01:40.309Z,-2.80
2018-12-15T13:04:09.401Z,-2.90
2018-12-15T13:06:38.476Z,-2.80
2018-12-15T13:09:08.182Z,-2.80
2018-12-15T13:11:37.243Z,-2.80
2018-12-15T13:14:06.365Z,-2.80
2018-12-15T13:16:35.482Z,-2.80
2018-12-15T13:19:04.749Z,-2.80
2018-12-15T13:21:33.890Z,-2.70
2018-12-15T13:24:03.007Z,-2.80
2018-12-15T13:26:32.175Z,-2.80
2018-12-15T13:29:01.213Z,-2.80
2018-12-15T13:31:30.304Z,-2.80
2018-12-15T13:33:59.392Z,-2.80
2018-12-15T13:36:28.535Z,-2.70
2018-12-15T13:38:57.663Z,-2.70
2018-12-15T13:41:26.767Z,-2.70
2018-12-15T13:43:55.872Z,-2.70
2018-12-15T13:46:25.005Z,-2.70
2018-12-15T13:48:54.139Z,-2.70
2018-12-15T13:51:23.248Z,-2.70
2018-12-15T13:53:52.407Z,-2.70
2018-12-15T13:56:21.484Z,-2.70
2018-12-15T13:58:50.533Z,-2.60
2018-12-15T14:01:19.685Z,-2.60
2018-12-15T14:03:48.809Z,-2.50
2018-12-15T14:06:17.899Z,-2.60
2018-12-15T14:08:47.014Z,-2.60
2018-12-15T14:11:16.080Z,-2.60
2018-12-15T14:13:45.172Z,-2.60
2018-12-15T14:16:14.321Z,-2.60
2018-12-15T14:18:43.456Z,-2.60
2018-12-15T14:21:12.520Z,-2.60
2018-12-15T14:23:41.650Z,-2.60
2018-12-15T14:26:10.695Z,-2.60
2018-12-15T14:28:39.789Z,-2.60
2018-12-15T14:31:08.921Z,-2.60
2018-12-15T14:33:38.146Z,-2.50
2018-12-15T14:36:07.245Z,-2.50
2018-12-15T14:38:36.433Z,-2.40
2018-12-15T14:41:05.560Z,-2.40
2018-12-15T14:43:34.638Z,-2.40
2018-12-15T14:46:03.781Z,-2.30
2018-12-15T14:48:32.943Z,-2.40
2018-12-15T14:51:02.002Z,-2.40
2018-12-15T14:53:31.120Z,-2.40
2018-12-15T14:56:00.255Z,-2.30
2018-12-15T14:58:29.299Z,-2.40
2018-12-15T15:00:59.875Z,-2.30
2018-12-15T15:03:29.331Z,-2.30
2018-12-15T15:05:58.479Z,-2.30
2018-12-15T15:08:27.585Z,-2.20
2018-12-15T15:10:56.687Z,-2.20
2018-12-15T15:13:25.867Z,-2.30
2018-12-15T15:15:54.997Z,-2.30
2018-12-15T15:18:24.078Z,-2.30
2018-12-15T15:20:53.226Z,-2.20
2018-12-15T15:23:22.357Z,-2.20
2018-12-15T15:25:51.561Z,-2.20
2018-12-15T15:28:20.689Z,-2.10
2018-12-15T15:30:49.845Z,-2.10
2018-12-15T15:33:18.977Z,-2.20
2018-12-15T15:35:48.118Z,-2.10
2018-12-15T15:38:17.338Z,-2.10
2018-12-15T15:40:46.570Z,-2.10
2018-12-15T15:43:15.738Z,-2.10
2018-12-15T15:45:44.849Z,-2.10
2018-12-15T15:48:14.007Z,-2.10
2018-12-15T15:50:43.161Z,-2.10
2018-12-15T15:53:12.222Z,-2.10
2018-12-15T15:55:41.528Z,-2.10
2018-12-15T15:58:10.711Z,-2.20
2018-12-15T16:00:40.192Z,-2.20
2018-12-15T16:03:09.288Z,-2.10
2018-12-15T16:05:38.644Z,-2.20
2018-12-15T16:08:07.746Z,-2.20
2018-12-15T16:10:36.987Z,-2.20
2018-12-15T16:13:06.154Z,-2.20
2018-12-15T16:15:35.218Z,-2.20
2018-12-15T16:18:04.283Z,-2.10
2018-12-15T16:20:33.708Z,-2.10
2018-12-15T16:23:02.838Z,-2.00
2018-12-15T16:25:31.974Z,-2.00
2018-12-15T16:28:01.124Z,-2.00
2018-12-15T16:30:30.244Z,-2.00
2018-12-15T16:32:59.338Z,-2.00
2018-12-15T16:35:28.469Z,-2.00
2018-12-15T16:37:57.592Z,-2.00
2018-12-15T16:40:26.714Z,-2.00
2018-12-15T16:42:55.899Z,-2.00
2018-12-15T16:45:24.988Z,-2.00
2018-12-15T16:47:54.093Z,-2.00
2018-12-15T16:50:24.319Z,-2.00
2018-12-15T16:52:53.457Z,-2.00
2018-12-15T16:55:22.743Z,-2.00
2018-12-15T16:57:51.967Z,-2.00
2018-12-15T17:00:21.048Z,-2.00
2018-12-15T17:02:50.158Z,-2.10
2018-12-15T17:05:19.721Z,-2.00
2018-12-15T17:07:48.812Z,-2.00
2018-12-15T17:10:17.939Z,-1.90
2018-12-15T17:12:47.091Z,-1.90
2018-12-15T17:15:16.225Z,-1.90
2018-12-15T17:17:45.386Z,-1.80
2018-12-15T17:20:14.538Z,-1.80
2018-12-15T17:22:43.681Z,-1.90
2018-12-15T17:25:12.796Z,-1.90
2018-12-15T17:27:41.885Z,-2.00
2018-12-15T17:30:11.438Z,-2.00
2018-12-15T17:32:40.534Z,-2.10
2018-12-15T17:35:09.808Z,-2.20
2018-12-15T17:37:38.907Z,-2.20
2018-12-15T17:40:09.899Z,-2.10
2018-12-15T17:42:38.994Z,-2.20
2018-12-15T17:45:08.835Z,-2.20
2018-12-15T17:47:37.958Z,-2.10
2018-12-15T17:50:09.107Z,-2.20
2018-12-15T17:52:38.285Z,-2.20
2018-12-15T17:55:07.620Z,-2.20
2018-12-15T17:57:36.732Z,-2.20
2018-12-15T18:00:08.448Z,-2.20
2018-12-15T18:02:37.541Z,-2.20
2018-12-15T18:05:06.995Z,-2.20
2018-12-15T18:07:36.128Z,-2.20
2018-12-15T18:10:06.595Z,-2.30
2018-12-15T18:12:35.679Z,-2.30
2018-12-15T18:15:05.643Z,-2.30
2018-12-15T18:17:34.763Z,-2.20
2018-12-15T18:20:04.144Z,-2.30
2018-12-15T18:22:33.301Z,-2.30
2018-12-15T18:25:02.438Z,-2.20
2018-12-15T18:27:31.523Z,-2.20
2018-12-15T18:30:00.676Z,-2.20
2018-12-15T18:32:29.817Z,-2.20
2018-12-15T18:34:58.927Z,-2.20
2018-12-15T18:37:28.068Z,-2.30
2018-12-15T18:39:57.167Z,-2.30
2018-12-15T18:42:26.276Z,-2.30
2018-12-15T18:44:55.444Z,-2.30
2018-12-15T18:47:24.523Z,-2.40
2018-12-15T18:49:53.665Z,-2.40
2018-12-15T18:52:23.348Z,-2.40
2018-12-15T18:54:52.524Z,-2.40
2018-12-15T18:57:21.681Z,-2.40
2018-12-15T18:59:51.060Z,-2.40
2018-12-15T19:02:20.155Z,-2.50
2018-12-15T19:04:49.266Z,-2.50
2018-12-15T19:07:18.847Z,-2.50
2018-12-15T19:09:47.931Z,-2.60
2018-12-15T19:12:17.021Z,-2.60
2018-12-15T19:14:46.196Z,-2.60
2018-12-15T19:17:15.246Z,-2.50
2018-12-15T19:19:44.301Z,-2.60
2018-12-15T19:22:13.432Z,-2.60
2018-12-15T19:24:42.500Z,-2.50
2018-12-15T19:27:11.588Z,-2.50
2018-12-15T19:29:40.785Z,-2.50
2018-12-15T19:32:09.872Z,-2.60
2018-12-15T19:34:38.962Z,-2.50
2018-12-15T19:37:08.105Z,-2.40
2018-12-15T19:39:37.245Z,-2.40
2018-12-15T19:42:06.350Z,-2.40
2018-12-15T19:44:35.476Z,-2.30
2018-12-15T19:47:04.600Z,-2.30
2018-12-15T19:49:33.650Z,-2.30
2018-12-15T19:52:05.725Z,-2.20
2018-12-15T19:54:34.823Z,-2.20
2018-12-15T19:57:03.979Z,-2.20
2018-12-15T19:59:33.030Z,-2.20
2018-12-15T20:02:02.144Z,-2.20
2018-12-15T20:04:31.246Z,-2.10
2018-12-15T20:07:00.339Z,-2.10
2018-12-15T20:09:29.460Z,-2.00
2018-12-15T20:11:58.632Z,-2.00
2018-12-15T20:14:27.728Z,-2.00
2018-12-15T20:16:56.959Z,-1.90
2018-12-15T20:19:26.093Z,-1.80
2018-12-15T20:21:55.241Z,-1.80
2018-12-15T20:24:24.302Z,-1.80
2018-12-15T20:26:53.493Z,-1.70
2018-12-15T20:29:22.586Z,-1.70
2018-12-15T20:31:51.682Z,-1.80
2018-12-15T20:34:20.821Z,-1.70
2018-12-15T20:36:49.950Z,-1.70
2018-12-15T20:39:19.020Z,-1.70
2018-12-15T20:41:48.149Z,-1.70
2018-12-15T20:44:17.279Z,-1.60
2018-12-15T20:46:46.497Z,-1.60
2018-12-15T20:49:15.592Z,-1.60
2018-12-15T20:51:44.687Z,-1.50
2018-12-15T20:54:18.759Z,-1.50
2018-12-15T20:56:47.883Z,-1.50
2018-12-15T20:59:17.020Z,-1.50
2018-12-15T21:01:46.141Z,-1.40
2018-12-15T21:04:15.211Z,-1.40
2018-12-15T21:06:44.304Z,-1.40
2018-12-15T21:09:13.415Z,-1.30
2018-12-15T21:11:42.513Z,-1.30
2018-12-15T21:14:11.632Z,-1.30
2018-12-15T21:16:40.769Z,-1.30
2018-12-15T21:19:09.862Z,-1.40
2018-12-15T21:21:38.939Z,-1.30
2018-12-15T21:24:08.027Z,-1.30
2018-12-15T21:26:37.121Z,-1.20
2018-12-15T21:29:06.195Z,-1.20
2018-12-15T21:31:35.599Z,-1.20
2018-12-15T21:34:07.856Z,-1.10
2018-12-15T21:36:35.931Z,-1.10
2018-12-15T21:39:07.041Z,-1.20
2018-12-15T21:41:36.169Z,-1.20
2018-12-15T21:44:05.286Z,-1.20
2018-12-15T21:46:34.407Z,-1.10
2018-12-15T21:49:03.580Z,-1.10
2018-12-15T21:51:32.740Z,-1.10
2018-12-15T21:54:01.978Z,-1.00
2018-12-15T21:56:31.413Z,-1.00
2018-12-15T21:59:06.991Z,-1.00
2018-12-15T22:01:36.206Z,-1.00
2018-12-15T22:04:05.271Z,-1.00
2018-12-15T22:06:34.421Z,-0.90
2018-12-15T22:09:03.991Z,-0.90
2018-12-15T22:11:33.127Z,-0.90
2018-12-15T22:14:03.234Z,-1.00
2018-12-15T22:16:32.559Z,-0.90
2018-12-15T22:19:01.857Z,-1.00
2018-12-15T22:21:30.914Z,-0.90
2018-12-15T22:24:00.089Z,-1.00
2018-12-15T22:26:29.195Z,-1.00
2018-12-15T22:28:58.321Z,-0.90
2018-12-15T22:31:27.464Z,-0.90
2018-12-15T22:33:56.530Z,-1.00
2018-12-15T22:36:25.733Z,-1.00
2018-12-15T22:38:54.858Z,-1.00
2018-12-15T22:41:23.969Z,-0.90
2018-12-15T22:43:53.242Z,-1.00
2018-12-15T22:46:22.461Z,-0.90
2018-12-15T22:48:51.584Z,-0.90
2018-12-15T22:51:20.733Z,-0.90
2018-12-15T22:53:50.239Z,-1.00
2018-12-15T22:56:19.390Z,-1.00
2018-12-15T22:58:48.489Z,-1.00
2018-12-15T23:01:17.855Z,-0.90
2018-12-15T23:03:46.915Z,-0.90
2018-12-15T23:06:16.039Z,-0.90
2018-12-15T23:08:45.201Z,-0.90
2018-12-15T23:11:14.306Z,-0.90
2018-12-15T23:13:43.441Z,-0.90
2018-12-15T23:16:12.789Z,-0.80
2018-12-15T23:18:41.879Z,-0.90
2018-12-15T23:21:10.984Z,-0.80
2018-12-15T23:23:40.234Z,-0.80
2018-12-15T23:26:09.312Z,-0.90
2018-12-15T23:28:38.416Z,-0.80
2018-12-15T23:31:07.558Z,-0.90
2018-12-15T23:33:36.834Z,-0.80
2018-12-15T23:36:05.962Z,-0.80
2018-12-15T23:38:35.315Z,-0.80
2018-12-15T23:41:04.515Z,-0.80
2018-12-15T23:43:33.759Z,-0.80
2018-12-15T23:46:03.318Z,-0.80
2018-12-15T23:48:32.414Z,-0.80
2018-12-15T23:51:01.603Z,-0.80
2018-12-15T23:53:30.777Z,-0.90
2018-12-15T23:56:00.018Z,-0.90
2018-12-15T23:58:29.209Z,-0.80
